sensor_id;sensor_type;location;lat;lon;timestamp;P1;durP1;ratioP1;P2;durP2;ratioP2
59366;SDS011;45163;47.690;11.770;2022-08-19T00:00:20;7.77;;;5.17;;
59366;SDS011;45163;47.690;11.770;2022-08-19T00:02:46;5.97;;;5.37;;
59366;SDS011;45163;47.690;11.770;2022-08-19T00:05:13;5.80;;;5.10;;
59366;SDS011;45163;47.690;11.770;2022-08-19T00:07:41;5.83;;;5.30;;
59366;SDS011;45163;47.690;11.770;2022-08-19T00:10:09;6.37;;;5.60;;
59366;SDS011;45163;47.690;11.770;2022-08-19T00:12:37;7.60;;;5.90;;
59366;SDS011;45163;47.690;11.770;2022-08-19T00:15:04;7.77;;;5.83;;
59366;SDS011;45163;47.690;11.770;2022-08-19T00:17:38;6.00;;;5.50;;
59366;SDS011;45163;47.690;11.770;2022-08-19T00:20:05;6.83;;;5.10;;
59366;SDS011;45163;47.690;11.770;2022-08-19T00:22:32;6.07;;;5.23;;
59366;SDS011;45163;47.690;11.770;2022-08-19T00:24:58;6.63;;;4.70;;
59366;SDS011;45163;47.690;11.770;2022-08-19T00:27:24;5.83;;;4.33;;
59366;SDS011;45163;47.690;11.770;2022-08-19T00:29:50;5.87;;;4.50;;
59366;SDS011;45163;47.690;11.770;2022-08-19T00:32:17;3.20;;;2.30;;
59366;SDS011;45163;47.690;11.770;2022-08-19T00:34:43;2.10;;;1.90;;
59366;SDS011;45163;47.690;11.770;2022-08-19T00:37:09;2.70;;;1.50;;
59366;SDS011;45163;47.690;11.770;2022-08-19T00:39:35;1.50;;;1.40;;
59366;SDS011;45163;47.690;11.770;2022-08-19T00:42:01;2.43;;;1.50;;
59366;SDS011;45163;47.690;11.770;2022-08-19T00:44:27;1.60;;;1.40;;
59366;SDS011;45163;47.690;11.770;2022-08-19T00:46:55;2.70;;;1.37;;
59366;SDS011;45163;47.690;11.770;2022-08-19T00:49:37;1.67;;;1.57;;
59366;SDS011;45163;47.690;11.770;2022-08-19T00:52:12;1.50;;;1.40;;
59366;SDS011;45163;47.690;11.770;2022-08-19T00:54:40;1.43;;;1.33;;
59366;SDS011;45163;47.690;11.770;2022-08-19T00:57:09;1.53;;;1.43;;
59366;SDS011;45163;47.690;11.770;2022-08-19T00:59:39;1.60;;;1.43;;
59366;SDS011;45163;47.690;11.770;2022-08-19T01:02:07;1.70;;;1.60;;
59366;SDS011;45163;47.690;11.770;2022-08-19T01:04:33;2.60;;;1.70;;
59366;SDS011;45163;47.690;11.770;2022-08-19T01:06:59;1.50;;;1.40;;
59366;SDS011;45163;47.690;11.770;2022-08-19T01:09:27;1.67;;;1.40;;
59366;SDS011;45163;47.690;11.770;2022-08-19T01:11:53;1.50;;;1.40;;
59366;SDS011;45163;47.690;11.770;2022-08-19T01:14:20;1.60;;;1.50;;
59366;SDS011;45163;47.690;11.770;2022-08-19T01:16:46;1.57;;;1.47;;
59366;SDS011;45163;47.690;11.770;2022-08-19T01:19:15;2.27;;;1.60;;
59366;SDS011;45163;47.690;11.770;2022-08-19T01:21:52;1.50;;;1.40;;
59366;SDS011;45163;47.690;11.770;2022-08-19T01:24:36;1.40;;;1.30;;
59366;SDS011;45163;47.690;11.770;2022-08-19T01:27:05;1.40;;;1.30;;
59366;SDS011;45163;47.690;11.770;2022-08-19T01:29:33;1.90;;;1.60;;
59366;SDS011;45163;47.690;11.770;2022-08-19T01:32:00;2.13;;;1.60;;
59366;SDS011;45163;47.690;11.770;2022-08-19T01:34:26;1.40;;;1.30;;
59366;SDS011;45163;47.690;11.770;2022-08-19T01:36:53;2.30;;;1.70;;
59366;SDS011;45163;47.690;11.770;2022-08-19T01:39:20;2.63;;;1.40;;
59366;SDS011;45163;47.690;11.770;2022-08-19T01:41:48;2.07;;;1.60;;
59366;SDS011;45163;47.690;11.770;2022-08-19T01:44:15;2.23;;;1.90;;
59366;SDS011;45163;47.690;11.770;2022-08-19T01:46:47;1.53;;;1.43;;
59366;SDS011;45163;47.690;11.770;2022-08-19T01:49:14;2.43;;;1.40;;
59366;SDS011;45163;47.690;11.770;2022-08-19T01:51:44;1.80;;;1.70;;
59366;SDS011;45163;47.690;11.770;2022-08-19T01:54:12;1.67;;;1.50;;
59366;SDS011;45163;47.690;11.770;2022-08-19T01:56:39;1.70;;;1.60;;
59366;SDS011;45163;47.690;11.770;2022-08-19T01:59:09;1.60;;;1.50;;
59366;SDS011;45163;47.690;11.770;2022-08-19T02:01:38;1.83;;;1.60;;
59366;SDS011;45163;47.690;11.770;2022-08-19T02:04:04;1.60;;;1.50;;
59366;SDS011;45163;47.690;11.770;2022-08-19T02:06:31;3.50;;;1.70;;
59366;SDS011;45163;47.690;11.770;2022-08-19T02:08:57;1.70;;;1.60;;
59366;SDS011;45163;47.690;11.770;2022-08-19T02:11:27;2.23;;;1.60;;
59366;SDS011;45163;47.690;11.770;2022-08-19T02:13:57;1.97;;;1.50;;
59366;SDS011;45163;47.690;11.770;2022-08-19T02:16:24;1.83;;;1.60;;
59366;SDS011;45163;47.690;11.770;2022-08-19T02:18:50;3.70;;;1.50;;
59366;SDS011;45163;47.690;11.770;2022-08-19T02:21:17;1.70;;;1.60;;
59366;SDS011;45163;47.690;11.770;2022-08-19T02:23:49;1.60;;;1.50;;
59366;SDS011;45163;47.690;11.770;2022-08-19T02:26:16;2.23;;;1.53;;
59366;SDS011;45163;47.690;11.770;2022-08-19T02:28:43;1.97;;;1.57;;
59366;SDS011;45163;47.690;11.770;2022-08-19T02:31:11;2.03;;;1.67;;
59366;SDS011;45163;47.690;11.770;2022-08-19T02:33:40;2.10;;;1.90;;
59366;SDS011;45163;47.690;11.770;2022-08-19T02:36:07;1.70;;;1.60;;
59366;SDS011;45163;47.690;11.770;2022-08-19T02:38:34;2.03;;;1.83;;
59366;SDS011;45163;47.690;11.770;2022-08-19T02:41:02;2.13;;;1.90;;
59366;SDS011;45163;47.690;11.770;2022-08-19T02:43:34;1.80;;;1.70;;
59366;SDS011;45163;47.690;11.770;2022-08-19T02:48:40;2.00;;;1.80;;
59366;SDS011;45163;47.690;11.770;2022-08-19T02:51:06;1.93;;;1.73;;
59366;SDS011;45163;47.690;11.770;2022-08-19T02:53:32;2.00;;;1.80;;
59366;SDS011;45163;47.690;11.770;2022-08-19T02:55:58;1.63;;;1.53;;
59366;SDS011;45163;47.690;11.770;2022-08-19T02:58:24;1.70;;;1.60;;
59366;SDS011;45163;47.690;11.770;2022-08-19T03:00:52;1.70;;;1.60;;
59366;SDS011;45163;47.690;11.770;2022-08-19T03:03:21;1.53;;;1.43;;
59366;SDS011;45163;47.690;11.770;2022-08-19T03:05:47;1.50;;;1.40;;
59366;SDS011;45163;47.690;11.770;2022-08-19T03:08:13;1.70;;;1.60;;
59366;SDS011;45163;47.690;11.770;2022-08-19T03:10:40;1.40;;;1.30;;
59366;SDS011;45163;47.690;11.770;2022-08-19T03:13:10;1.60;;;1.50;;
59366;SDS011;45163;47.690;11.770;2022-08-19T03:15:41;1.60;;;1.50;;
59366;SDS011;45163;47.690;11.770;2022-08-19T03:18:09;1.80;;;1.70;;
59366;SDS011;45163;47.690;11.770;2022-08-19T03:20:39;2.00;;;1.80;;
59366;SDS011;45163;47.690;11.770;2022-08-19T03:23:07;2.43;;;2.23;;
59366;SDS011;45163;47.690;11.770;2022-08-19T03:25:36;2.47;;;2.27;;
59366;SDS011;45163;47.690;11.770;2022-08-19T03:28:03;2.90;;;2.70;;
59366;SDS011;45163;47.690;11.770;2022-08-19T03:30:29;2.50;;;2.30;;
59366;SDS011;45163;47.690;11.770;2022-08-19T03:32:55;3.00;;;2.60;;
59366;SDS011;45163;47.690;11.770;2022-08-19T03:35:21;2.90;;;2.50;;
59366;SDS011;45163;47.690;11.770;2022-08-19T03:37:47;2.43;;;2.10;;
59366;SDS011;45163;47.690;11.770;2022-08-19T03:40:13;2.70;;;2.40;;
59366;SDS011;45163;47.690;11.770;2022-08-19T03:42:39;2.70;;;2.50;;
59366;SDS011;45163;47.690;11.770;2022-08-19T03:45:07;2.60;;;2.40;;
59366;SDS011;45163;47.690;11.770;2022-08-19T03:47:35;3.97;;;2.60;;
59366;SDS011;45163;47.690;11.770;2022-08-19T03:50:03;5.43;;;2.70;;
59366;SDS011;45163;47.690;11.770;2022-08-19T03:52:30;2.90;;;2.60;;
59366;SDS011;45163;47.690;11.770;2022-08-19T03:54:56;3.73;;;2.80;;
59366;SDS011;45163;47.690;11.770;2022-08-19T03:57:22;5.83;;;3.10;;
59366;SDS011;45163;47.690;11.770;2022-08-19T03:59:48;3.43;;;3.10;;
59366;SDS011;45163;47.690;11.770;2022-08-19T04:02:14;4.50;;;3.93;;
59366;SDS011;45163;47.690;11.770;2022-08-19T04:04:41;2.80;;;2.60;;
59366;SDS011;45163;47.690;11.770;2022-08-19T04:07:09;3.30;;;3.00;;
59366;SDS011;45163;47.690;11.770;2022-08-19T04:09:36;2.50;;;2.30;;
59366;SDS011;45163;47.690;11.770;2022-08-19T04:12:02;2.63;;;2.40;;
59366;SDS011;45163;47.690;11.770;2022-08-19T04:14:31;4.63;;;2.33;;
59366;SDS011;45163;47.690;11.770;2022-08-19T04:16:59;2.80;;;2.50;;
59366;SDS011;45163;47.690;11.770;2022-08-19T04:19:26;3.70;;;2.23;;
59366;SDS011;45163;47.690;11.770;2022-08-19T04:21:54;2.20;;;2.00;;
59366;SDS011;45163;47.690;11.770;2022-08-19T04:24:20;3.67;;;2.50;;
59366;SDS011;45163;47.690;11.770;2022-08-19T04:26:47;5.63;;;2.50;;
59366;SDS011;45163;47.690;11.770;2022-08-19T04:29:16;2.80;;;2.40;;
59366;SDS011;45163;47.690;11.770;2022-08-19T04:31:44;3.50;;;2.83;;
59366;SDS011;45163;47.690;11.770;2022-08-19T04:34:12;3.90;;;3.13;;
59366;SDS011;45163;47.690;11.770;2022-08-19T04:36:40;2.83;;;2.60;;
59366;SDS011;45163;47.690;11.770;2022-08-19T04:39:08;6.70;;;3.00;;
59366;SDS011;45163;47.690;11.770;2022-08-19T04:41:42;7.73;;;2.70;;
59366;SDS011;45163;47.690;11.770;2022-08-19T04:44:29;5.23;;;2.87;;
59366;SDS011;45163;47.690;11.770;2022-08-19T04:46:56;3.17;;;2.80;;
59366;SDS011;45163;47.690;11.770;2022-08-19T04:49:23;4.17;;;2.97;;
59366;SDS011;45163;47.690;11.770;2022-08-19T04:51:51;10.53;;;3.20;;
59366;SDS011;45163;47.690;11.770;2022-08-19T04:54:20;2.80;;;2.60;;
59366;SDS011;45163;47.690;11.770;2022-08-19T04:56:49;4.27;;;3.33;;
59366;SDS011;45163;47.690;11.770;2022-08-19T04:59:16;4.93;;;3.23;;
59366;SDS011;45163;47.690;11.770;2022-08-19T05:01:43;4.50;;;3.10;;
59366;SDS011;45163;47.690;11.770;2022-08-19T05:04:09;3.63;;;3.07;;
59366;SDS011;45163;47.690;11.770;2022-08-19T05:06:37;6.70;;;3.40;;
59366;SDS011;45163;47.690;11.770;2022-08-19T05:09:03;4.23;;;2.90;;
59366;SDS011;45163;47.690;11.770;2022-08-19T05:11:32;3.17;;;2.87;;
59366;SDS011;45163;47.690;11.770;2022-08-19T05:14:00;3.03;;;2.73;;
59366;SDS011;45163;47.690;11.770;2022-08-19T05:16:26;2.77;;;2.57;;
59366;SDS011;45163;47.690;11.770;2022-08-19T05:18:53;4.83;;;3.10;;
59366;SDS011;45163;47.690;11.770;2022-08-19T05:21:39;5.83;;;3.13;;
59366;SDS011;45163;47.690;11.770;2022-08-19T05:24:24;3.90;;;3.07;;
59366;SDS011;45163;47.690;11.770;2022-08-19T05:26:51;4.67;;;3.50;;
59366;SDS011;45163;47.690;11.770;2022-08-19T05:29:22;3.57;;;3.27;;
59366;SDS011;45163;47.690;11.770;2022-08-19T05:31:50;3.80;;;3.47;;
59366;SDS011;45163;47.690;11.770;2022-08-19T05:34:17;3.67;;;3.30;;
59366;SDS011;45163;47.690;11.770;2022-08-19T05:36:47;3.50;;;3.20;;
59366;SDS011;45163;47.690;11.770;2022-08-19T05:39:16;3.57;;;3.27;;
59366;SDS011;45163;47.690;11.770;2022-08-19T05:41:48;3.97;;;3.40;;
59366;SDS011;45163;47.690;11.770;2022-08-19T05:44:17;3.77;;;3.10;;
59366;SDS011;45163;47.690;11.770;2022-08-19T05:46:43;4.93;;;3.20;;
59366;SDS011;45163;47.690;11.770;2022-08-19T05:49:12;3.07;;;2.77;;
59366;SDS011;45163;47.690;11.770;2022-08-19T05:51:41;3.00;;;2.70;;
59366;SDS011;45163;47.690;11.770;2022-08-19T05:54:08;2.80;;;2.50;;
59366;SDS011;45163;47.690;11.770;2022-08-19T05:56:34;2.47;;;2.27;;
59366;SDS011;45163;47.690;11.770;2022-08-19T05:59:04;3.33;;;2.50;;
59366;SDS011;45163;47.690;11.770;2022-08-19T06:01:35;2.63;;;2.43;;
59366;SDS011;45163;47.690;11.770;2022-08-19T06:04:02;3.03;;;2.20;;
59366;SDS011;45163;47.690;11.770;2022-08-19T06:06:29;2.40;;;2.20;;
59366;SDS011;45163;47.690;11.770;2022-08-19T06:08:55;4.47;;;2.30;;
59366;SDS011;45163;47.690;11.770;2022-08-19T06:11:22;2.67;;;2.30;;
59366;SDS011;45163;47.690;11.770;2022-08-19T06:13:50;2.43;;;2.23;;
59366;SDS011;45163;47.690;11.770;2022-08-19T06:16:21;2.40;;;2.20;;
59366;SDS011;45163;47.690;11.770;2022-08-19T06:18:51;3.77;;;2.20;;
59366;SDS011;45163;47.690;11.770;2022-08-19T06:21:19;3.53;;;2.10;;
59366;SDS011;45163;47.690;11.770;2022-08-19T06:23:46;2.40;;;2.20;;
59366;SDS011;45163;47.690;11.770;2022-08-19T06:26:13;2.87;;;2.20;;
59366;SDS011;45163;47.690;11.770;2022-08-19T06:28:41;3.90;;;2.20;;
59366;SDS011;45163;47.690;11.770;2022-08-19T06:31:15;2.57;;;2.10;;
59366;SDS011;45163;47.690;11.770;2022-08-19T06:33:43;3.20;;;2.10;;
59366;SDS011;45163;47.690;11.770;2022-08-19T06:36:23;2.47;;;2.00;;
59366;SDS011;45163;47.690;11.770;2022-08-19T06:38:57;2.23;;;2.00;;
59366;SDS011;45163;47.690;11.770;2022-08-19T06:41:25;2.10;;;1.90;;
59366;SDS011;45163;47.690;11.770;2022-08-19T06:43:51;2.43;;;2.10;;
59366;SDS011;45163;47.690;11.770;2022-08-19T06:46:18;3.10;;;2.17;;
59366;SDS011;45163;47.690;11.770;2022-08-19T06:48:45;3.43;;;2.60;;
59366;SDS011;45163;47.690;11.770;2022-08-19T06:51:13;3.17;;;2.00;;
59366;SDS011;45163;47.690;11.770;2022-08-19T06:53:43;4.50;;;1.80;;
59366;SDS011;45163;47.690;11.770;2022-08-19T06:56:14;2.23;;;1.80;;
59366;SDS011;45163;47.690;11.770;2022-08-19T06:58:41;2.10;;;1.80;;
59366;SDS011;45163;47.690;11.770;2022-08-19T07:01:07;4.40;;;2.03;;
59366;SDS011;45163;47.690;11.770;2022-08-19T07:03:34;2.10;;;1.90;;
59366;SDS011;45163;47.690;11.770;2022-08-19T07:06:05;6.17;;;2.10;;
59366;SDS011;45163;47.690;11.770;2022-08-19T07:08:33;2.57;;;1.87;;
59366;SDS011;45163;47.690;11.770;2022-08-19T07:11:05;2.30;;;2.10;;
59366;SDS011;45163;47.690;11.770;2022-08-19T07:13:33;3.07;;;2.20;;
59366;SDS011;45163;47.690;11.770;2022-08-19T07:16:09;2.50;;;2.30;;
59366;SDS011;45163;47.690;11.770;2022-08-19T07:18:37;2.70;;;2.50;;
59366;SDS011;45163;47.690;11.770;2022-08-19T07:23:37;2.13;;;1.93;;
59366;SDS011;45163;47.690;11.770;2022-08-19T07:26:08;2.80;;;2.10;;
59366;SDS011;45163;47.690;11.770;2022-08-19T07:28:40;3.23;;;2.10;;
59366;SDS011;45163;47.690;11.770;2022-08-19T07:31:16;2.03;;;1.93;;
59366;SDS011;45163;47.690;11.770;2022-08-19T07:33:44;2.40;;;2.20;;
59366;SDS011;45163;47.690;11.770;2022-08-19T07:36:12;3.67;;;2.00;;
59366;SDS011;45163;47.690;11.770;2022-08-19T07:38:52;2.10;;;1.90;;
59366;SDS011;45163;47.690;11.770;2022-08-19T07:41:21;3.67;;;2.10;;
59366;SDS011;45163;47.690;11.770;2022-08-19T07:43:49;2.80;;;2.00;;
59366;SDS011;45163;47.690;11.770;2022-08-19T07:46:16;2.00;;;1.80;;
59366;SDS011;45163;47.690;11.770;2022-08-19T07:48:43;2.07;;;1.97;;
59366;SDS011;45163;47.690;11.770;2022-08-19T07:51:14;3.10;;;2.77;;
59366;SDS011;45163;47.690;11.770;2022-08-19T07:53:44;1.90;;;1.70;;
59366;SDS011;45163;47.690;11.770;2022-08-19T07:56:14;3.03;;;2.10;;
59366;SDS011;45163;47.690;11.770;2022-08-19T07:58:42;2.20;;;1.97;;
59366;SDS011;45163;47.690;11.770;2022-08-19T08:01:11;2.10;;;1.90;;
59366;SDS011;45163;47.690;11.770;2022-08-19T08:03:39;2.47;;;1.90;;
59366;SDS011;45163;47.690;11.770;2022-08-19T08:06:23;4.00;;;1.90;;
59366;SDS011;45163;47.690;11.770;2022-08-19T08:09:09;2.03;;;1.90;;
59366;SDS011;45163;47.690;11.770;2022-08-19T08:14:05;1.90;;;1.80;;
59366;SDS011;45163;47.690;11.770;2022-08-19T08:16:35;2.13;;;1.80;;
59366;SDS011;45163;47.690;11.770;2022-08-19T08:19:05;3.30;;;1.70;;
59366;SDS011;45163;47.690;11.770;2022-08-19T08:21:33;3.40;;;2.00;;
59366;SDS011;45163;47.690;11.770;2022-08-19T08:23:59;3.40;;;1.87;;
59366;SDS011;45163;47.690;11.770;2022-08-19T08:26:25;2.10;;;1.90;;
59366;SDS011;45163;47.690;11.770;2022-08-19T08:28:52;3.43;;;1.90;;
59366;SDS011;45163;47.690;11.770;2022-08-19T08:31:18;3.40;;;1.83;;
59366;SDS011;45163;47.690;11.770;2022-08-19T08:33:45;2.33;;;1.70;;
59366;SDS011;45163;47.690;11.770;2022-08-19T08:36:12;3.93;;;1.83;;
59366;SDS011;45163;47.690;11.770;2022-08-19T08:38:42;2.93;;;1.90;;
59366;SDS011;45163;47.690;11.770;2022-08-19T08:41:17;4.40;;;2.00;;
59366;SDS011;45163;47.690;11.770;2022-08-19T08:44:02;1.77;;;1.60;;
59366;SDS011;45163;47.690;11.770;2022-08-19T08:49:25;1.90;;;1.70;;
59366;SDS011;45163;47.690;11.770;2022-08-19T08:52:05;2.57;;;1.70;;
59366;SDS011;45163;47.690;11.770;2022-08-19T08:54:39;3.30;;;2.07;;
59366;SDS011;45163;47.690;11.770;2022-08-19T08:57:11;2.37;;;1.90;;
59366;SDS011;45163;47.690;11.770;2022-08-19T08:59:41;3.60;;;1.60;;
59366;SDS011;45163;47.690;11.770;2022-08-19T09:02:16;2.03;;;1.80;;
59366;SDS011;45163;47.690;11.770;2022-08-19T09:04:43;1.90;;;1.77;;
59366;SDS011;45163;47.690;11.770;2022-08-19T09:12:58;2.90;;;1.60;;
59366;SDS011;45163;47.690;11.770;2022-08-19T09:15:34;2.30;;;1.80;;
59366;SDS011;45163;47.690;11.770;2022-08-19T09:18:07;1.87;;;1.77;;
59366;SDS011;45163;47.690;11.770;2022-08-19T09:20:34;1.73;;;1.63;;
59366;SDS011;45163;47.690;11.770;2022-08-19T09:23:00;2.50;;;2.13;;
59366;SDS011;45163;47.690;11.770;2022-08-19T09:25:28;3.40;;;2.10;;
59366;SDS011;45163;47.690;11.770;2022-08-19T09:27:54;2.17;;;1.70;;
59366;SDS011;45163;47.690;11.770;2022-08-19T09:30:23;1.90;;;1.70;;
59366;SDS011;45163;47.690;11.770;2022-08-19T09:32:51;1.55;;;1.45;;
59366;SDS011;45163;47.690;11.770;2022-08-19T09:35:21;2.13;;;1.92;;
59366;SDS011;45163;47.690;11.770;2022-08-19T09:37:49;1.73;;;1.63;;
59366;SDS011;45163;47.690;11.770;2022-08-19T09:40:16;2.88;;;1.98;;
59366;SDS011;45163;47.690;11.770;2022-08-19T09:42:43;6.75;;;3.97;;
59366;SDS011;45163;47.690;11.770;2022-08-19T09:45:12;1.88;;;1.73;;
59366;SDS011;45163;47.690;11.770;2022-08-19T09:47:42;1.88;;;1.70;;
59366;SDS011;45163;47.690;11.770;2022-08-19T09:50:10;1.70;;;1.60;;
59366;SDS011;45163;47.690;11.770;2022-08-19T09:52:38;1.67;;;1.58;;
59366;SDS011;45163;47.690;11.770;2022-08-19T09:55:05;6.05;;;2.10;;
59366;SDS011;45163;47.690;11.770;2022-08-19T09:57:33;2.55;;;1.90;;
59366;SDS011;45163;47.690;11.770;2022-08-19T09:59:59;3.22;;;2.13;;
59366;SDS011;45163;47.690;11.770;2022-08-19T10:02:26;4.35;;;1.80;;
59366;SDS011;45163;47.690;11.770;2022-08-19T10:04:51;3.33;;;1.92;;
59366;SDS011;45163;47.690;11.770;2022-08-19T10:07:37;2.22;;;1.75;;
59366;SDS011;45163;47.690;11.770;2022-08-19T10:10:04;2.75;;;1.92;;
59366;SDS011;45163;47.690;11.770;2022-08-19T10:12:32;2.00;;;1.90;;
59366;SDS011;45163;47.690;11.770;2022-08-19T10:14:59;1.77;;;1.67;;
59366;SDS011;45163;47.690;11.770;2022-08-19T10:17:26;2.00;;;1.70;;
59366;SDS011;45163;47.690;11.770;2022-08-19T10:19:52;2.58;;;2.00;;
59366;SDS011;45163;47.690;11.770;2022-08-19T10:22:18;1.95;;;1.85;;
59366;SDS011;45163;47.690;11.770;2022-08-19T10:24:47;1.70;;;1.60;;
59366;SDS011;45163;47.690;11.770;2022-08-19T10:27:14;1.70;;;1.60;;
59366;SDS011;45163;47.690;11.770;2022-08-19T10:29:40;1.83;;;1.50;;
59366;SDS011;45163;47.690;11.770;2022-08-19T10:32:07;1.90;;;1.70;;
59366;SDS011;45163;47.690;11.770;2022-08-19T10:34:34;2.00;;;1.67;;
59366;SDS011;45163;47.690;11.770;2022-08-19T10:37:04;1.80;;;1.70;;
59366;SDS011;45163;47.690;11.770;2022-08-19T10:39:32;2.47;;;1.50;;
59366;SDS011;45163;47.690;11.770;2022-08-19T10:41:59;6.18;;;1.90;;
59366;SDS011;45163;47.690;11.770;2022-08-19T10:44:29;2.08;;;1.80;;
59366;SDS011;45163;47.690;11.770;2022-08-19T10:46:55;3.65;;;1.60;;
59366;SDS011;45163;47.690;11.770;2022-08-19T10:49:21;2.78;;;1.70;;
59366;SDS011;45163;47.690;11.770;2022-08-19T10:51:49;1.80;;;1.70;;
59366;SDS011;45163;47.690;11.770;2022-08-19T10:54:34;2.22;;;2.00;;
59366;SDS011;45163;47.690;11.770;2022-08-19T10:57:19;2.25;;;1.90;;
59366;SDS011;45163;47.690;11.770;2022-08-19T10:59:45;3.67;;;1.98;;
59366;SDS011;45163;47.690;11.770;2022-08-19T11:02:11;1.60;;;1.50;;
59366;SDS011;45163;47.690;11.770;2022-08-19T11:04:38;1.75;;;1.65;;
59366;SDS011;45163;47.690;11.770;2022-08-19T11:07:06;1.88;;;1.73;;
59366;SDS011;45163;47.690;11.770;2022-08-19T11:09:36;1.70;;;1.60;;
59366;SDS011;45163;47.690;11.770;2022-08-19T11:12:06;2.00;;;1.90;;
59366;SDS011;45163;47.690;11.770;2022-08-19T11:14:33;2.08;;;1.70;;
59366;SDS011;45163;47.690;11.770;2022-08-19T11:16:59;1.65;;;1.55;;
59366;SDS011;45163;47.690;11.770;2022-08-19T11:19:26;1.70;;;1.60;;
59366;SDS011;45163;47.690;11.770;2022-08-19T11:21:53;2.47;;;1.73;;
59366;SDS011;45163;47.690;11.770;2022-08-19T11:24:21;2.00;;;1.80;;
59366;SDS011;45163;47.690;11.770;2022-08-19T11:26:49;1.70;;;1.60;;
59366;SDS011;45163;47.690;11.770;2022-08-19T11:29:18;1.80;;;1.70;;
59366;SDS011;45163;47.690;11.770;2022-08-19T11:31:47;5.25;;;1.70;;
59366;SDS011;45163;47.690;11.770;2022-08-19T11:34:16;1.63;;;1.52;;
59366;SDS011;45163;47.690;11.770;2022-08-19T11:36:45;1.63;;;1.52;;
59366;SDS011;45163;47.690;11.770;2022-08-19T11:39:13;2.58;;;1.52;;
59366;SDS011;45163;47.690;11.770;2022-08-19T11:41:41;1.60;;;1.50;;
59366;SDS011;45163;47.690;11.770;2022-08-19T11:44:08;2.28;;;1.88;;
59366;SDS011;45163;47.690;11.770;2022-08-19T11:46:35;1.90;;;1.70;;
59366;SDS011;45163;47.690;11.770;2022-08-19T11:49:02;2.40;;;1.67;;
59366;SDS011;45163;47.690;11.770;2022-08-19T11:51:31;1.80;;;1.55;;
59366;SDS011;45163;47.690;11.770;2022-08-19T11:53:57;1.80;;;1.70;;
59366;SDS011;45163;47.690;11.770;2022-08-19T11:56:24;2.05;;;1.92;;
59366;SDS011;45163;47.690;11.770;2022-08-19T11:58:52;3.20;;;1.85;;
59366;SDS011;45163;47.690;11.770;2022-08-19T12:01:19;2.13;;;1.92;;
59366;SDS011;45163;47.690;11.770;2022-08-19T12:03:47;2.05;;;1.85;;
59366;SDS011;45163;47.690;11.770;2022-08-19T12:06:16;1.90;;;1.77;;
59366;SDS011;45163;47.690;11.770;2022-08-19T12:08:51;2.10;;;1.90;;
59366;SDS011;45163;47.690;11.770;2022-08-19T12:11:17;2.10;;;1.90;;
59366;SDS011;45163;47.690;11.770;2022-08-19T12:13:43;1.90;;;1.70;;
59366;SDS011;45163;47.690;11.770;2022-08-19T12:16:14;2.23;;;2.03;;
59366;SDS011;45163;47.690;11.770;2022-08-19T12:18:43;3.00;;;2.10;;
59366;SDS011;45163;47.690;11.770;2022-08-19T12:21:12;2.87;;;2.20;;
59366;SDS011;45163;47.690;11.770;2022-08-19T12:23:42;2.50;;;2.30;;
59366;SDS011;45163;47.690;11.770;2022-08-19T12:26:11;2.83;;;2.40;;
59366;SDS011;45163;47.690;11.770;2022-08-19T12:28:37;2.20;;;2.00;;
59366;SDS011;45163;47.690;11.770;2022-08-19T12:31:04;2.00;;;1.90;;
59366;SDS011;45163;47.690;11.770;2022-08-19T12:33:31;2.00;;;1.80;;
59366;SDS011;45163;47.690;11.770;2022-08-19T12:36:01;1.80;;;1.70;;
59366;SDS011;45163;47.690;11.770;2022-08-19T12:38:31;1.80;;;1.70;;
59366;SDS011;45163;47.690;11.770;2022-08-19T12:40:57;2.00;;;1.80;;
59366;SDS011;45163;47.690;11.770;2022-08-19T12:43:24;1.90;;;1.80;;
59366;SDS011;45163;47.690;11.770;2022-08-19T12:45:50;1.70;;;1.60;;
59366;SDS011;45163;47.690;11.770;2022-08-19T12:48:16;1.80;;;1.70;;
59366;SDS011;45163;47.690;11.770;2022-08-19T12:50:43;1.87;;;1.77;;
59366;SDS011;45163;47.690;11.770;2022-08-19T12:53:13;1.77;;;1.67;;
59366;SDS011;45163;47.690;11.770;2022-08-19T12:55:39;2.07;;;1.53;;
59366;SDS011;45163;47.690;11.770;2022-08-19T12:58:06;2.60;;;2.07;;
59366;SDS011;45163;47.690;11.770;2022-08-19T13:00:32;2.00;;;1.80;;
59366;SDS011;45163;47.690;11.770;2022-08-19T13:02:58;1.80;;;1.70;;
59366;SDS011;45163;47.690;11.770;2022-08-19T13:05:26;3.57;;;2.00;;
59366;SDS011;45163;47.690;11.770;2022-08-19T13:07:55;1.70;;;1.60;;
59366;SDS011;45163;47.690;11.770;2022-08-19T13:10:24;1.87;;;1.60;;
59366;SDS011;45163;47.690;11.770;2022-08-19T13:12:53;1.70;;;1.60;;
59366;SDS011;45163;47.690;11.770;2022-08-19T13:15:20;1.80;;;1.67;;
59366;SDS011;45163;47.690;11.770;2022-08-19T13:17:48;1.70;;;1.60;;
59366;SDS011;45163;47.690;11.770;2022-08-19T13:20:17;1.70;;;1.60;;
59366;SDS011;45163;47.690;11.770;2022-08-19T13:22:45;1.60;;;1.50;;
59366;SDS011;45163;47.690;11.770;2022-08-19T13:25:13;2.23;;;1.80;;
59366;SDS011;45163;47.690;11.770;2022-08-19T13:27:43;1.70;;;1.50;;
59366;SDS011;45163;47.690;11.770;2022-08-19T13:30:10;3.93;;;1.60;;
59366;SDS011;45163;47.690;11.770;2022-08-19T13:32:56;2.67;;;1.40;;
59366;SDS011;45163;47.690;11.770;2022-08-19T13:35:40;1.60;;;1.50;;
59366;SDS011;45163;47.690;11.770;2022-08-19T13:38:07;1.60;;;1.50;;
59366;SDS011;45163;47.690;11.770;2022-08-19T13:40:33;2.37;;;1.70;;
59366;SDS011;45163;47.690;11.770;2022-08-19T13:43:02;1.50;;;1.40;;
59366;SDS011;45163;47.690;11.770;2022-08-19T13:45:30;1.50;;;1.40;;
59366;SDS011;45163;47.690;11.770;2022-08-19T13:48:02;1.50;;;1.40;;
59366;SDS011;45163;47.690;11.770;2022-08-19T13:50:35;1.60;;;1.50;;
59366;SDS011;45163;47.690;11.770;2022-08-19T13:53:07;2.70;;;1.23;;
59366;SDS011;45163;47.690;11.770;2022-08-19T13:55:34;1.60;;;1.50;;
59366;SDS011;45163;47.690;11.770;2022-08-19T13:58:01;1.47;;;1.37;;
59366;SDS011;45163;47.690;11.770;2022-08-19T14:00:29;1.50;;;1.17;;
59366;SDS011;45163;47.690;11.770;2022-08-19T14:02:57;1.40;;;1.30;;
59366;SDS011;45163;47.690;11.770;2022-08-19T14:05:24;4.73;;;1.40;;
59366;SDS011;45163;47.690;11.770;2022-08-19T14:07:51;1.30;;;1.20;;
59366;SDS011;45163;47.690;11.770;2022-08-19T14:10:17;1.33;;;1.23;;
59366;SDS011;45163;47.690;11.770;2022-08-19T14:12:44;1.30;;;1.20;;
59366;SDS011;45163;47.690;11.770;2022-08-19T14:15:12;1.27;;;1.17;;
59366;SDS011;45163;47.690;11.770;2022-08-19T14:17:38;2.57;;;1.40;;
59366;SDS011;45163;47.690;11.770;2022-08-19T14:20:06;3.60;;;1.40;;
59366;SDS011;45163;47.690;11.770;2022-08-19T14:22:36;2.20;;;1.70;;
59366;SDS011;45163;47.690;11.770;2022-08-19T14:25:04;1.97;;;1.67;;
59366;SDS011;45163;47.690;11.770;2022-08-19T14:27:35;2.13;;;1.80;;
59366;SDS011;45163;47.690;11.770;2022-08-19T14:30:09;2.00;;;1.77;;
59366;SDS011;45163;47.690;11.770;2022-08-19T14:32:37;1.80;;;1.70;;
59366;SDS011;45163;47.690;11.770;2022-08-19T14:35:03;6.10;;;2.00;;
59366;SDS011;45163;47.690;11.770;2022-08-19T14:37:30;2.83;;;1.60;;
59366;SDS011;45163;47.690;11.770;2022-08-19T14:39:58;2.40;;;1.83;;
59366;SDS011;45163;47.690;11.770;2022-08-19T14:42:24;2.47;;;1.60;;
59366;SDS011;45163;47.690;11.770;2022-08-19T14:44:50;1.80;;;1.60;;
59366;SDS011;45163;47.690;11.770;2022-08-19T14:47:16;1.83;;;1.70;;
59366;SDS011;45163;47.690;11.770;2022-08-19T14:49:42;1.90;;;1.80;;
59366;SDS011;45163;47.690;11.770;2022-08-19T14:52:09;2.17;;;1.80;;
59366;SDS011;45163;47.690;11.770;2022-08-19T14:54:35;1.87;;;1.77;;
59366;SDS011;45163;47.690;11.770;2022-08-19T14:57:01;3.80;;;1.90;;